createdAt,value
2022-12-05T00:01:08.106Z,93.80
2022-12-05T00:03:34.638Z,94.30
2022-12-05T00:06:01.238Z,94.30
2022-12-05T00:08:27.852Z,94.30
2022-12-05T00:10:54.374Z,94.30
2022-12-05T00:13:20.939Z,94.30
2022-12-05T00:15:47.460Z,94.60
2022-12-05T00:18:14.016Z,95.00
2022-12-05T00:20:47.407Z,95.20
2022-12-05T00:23:14.308Z,95.50
2022-12-05T00:25:41.131Z,96.20
2022-12-05T00:28:07.652Z,95.70
2022-12-05T00:30:34.197Z,95.90
2022-12-05T00:33:00.757Z,95.90
2022-12-05T00:35:27.292Z,95.90
2022-12-05T00:37:53.837Z,96.10
2022-12-05T00:40:20.356Z,96.30
2022-12-05T00:42:51.998Z,96.50
2022-12-05T00:45:18.921Z,96.50
2022-12-05T00:47:45.585Z,96.70
2022-12-05T00:50:12.133Z,96.80
2022-12-05T00:52:38.685Z,97.00
2022-12-05T00:55:05.590Z,97.40
2022-12-05T00:57:32.253Z,97.40
2022-12-05T00:59:59.051Z,97.50
2022-12-05T01:02:25.763Z,97.40
2022-12-05T01:04:52.278Z,97.50
2022-12-05T01:07:18.828Z,97.50
2022-12-05T01:09:45.364Z,97.50
2022-12-05T01:12:11.900Z,97.50
2022-12-05T01:14:38.674Z,97.50
2022-12-05T01:17:05.348Z,97.60
2022-12-05T01:19:32.255Z,97.50
2022-12-05T01:21:59.134Z,97.60
2022-12-05T01:24:26.525Z,97.50
2022-12-05T01:26:53.092Z,97.50
2022-12-05T01:29:21.044Z,97.60
2022-12-05T01:31:47.839Z,97.50
2022-12-05T01:34:15.869Z,97.50
2022-12-05T01:36:42.817Z,97.50
2022-12-05T01:39:09.863Z,97.50
2022-12-05T01:41:38.599Z,97.50
2022-12-05T01:44:06.480Z,97.50
2022-12-05T01:46:34.168Z,97.50
2022-12-05T01:49:07.729Z,97.50
2022-12-05T01:51:35.779Z,97.50
2022-12-05T01:54:03.473Z,97.50
2022-12-05T01:56:32.708Z,97.50
2022-12-05T01:59:00.451Z,97.30
2022-12-05T02:01:27.173Z,97.30
2022-12-05T02:03:56.683Z,97.30
2022-12-05T02:06:23.555Z,97.10
2022-12-05T02:08:51.081Z,96.90
2022-12-05T02:11:17.909Z,96.80
2022-12-05T02:14:05.993Z,96.60
2022-12-05T02:16:45.062Z,96.50
2022-12-05T02:19:44.601Z,96.20
2022-12-05T02:22:35.232Z,95.80
2022-12-05T02:25:11.396Z,95.80
2022-12-05T02:27:45.620Z,95.30
2022-12-05T02:30:14.282Z,95.10
2022-12-05T02:32:49.672Z,94.60
2022-12-05T02:35:30.172Z,94.40
2022-12-05T02:38:15.438Z,94.10
2022-12-05T02:40:42.067Z,94.20
2022-12-05T02:43:14.578Z,94.10
2022-12-05T02:45:41.703Z,94.10
2022-12-05T02:48:09.017Z,94.10
2022-12-05T02:50:37.599Z,94.10
2022-12-05T02:53:06.592Z,93.70
2022-12-05T02:55:34.019Z,93.30
2022-12-05T02:58:03.119Z,93.20
2022-12-05T03:00:29.674Z,93.00
2022-12-05T03:02:58.168Z,92.80
2022-12-05T03:05:39.964Z,92.40
2022-12-05T03:08:08.474Z,92.00
2022-12-05T03:10:36.843Z,91.90
2022-12-05T03:13:09.822Z,92.00
2022-12-05T03:15:40.671Z,91.90
2022-12-05T03:18:11.165Z,92.10
2022-12-05T03:20:47.893Z,92.00
2022-12-05T03:23:17.183Z,92.00
2022-12-05T03:25:46.750Z,92.10
2022-12-05T03:28:20.693Z,91.90
2022-12-05T03:30:48.179Z,91.80
2022-12-05T03:33:20.038Z,91.60
2022-12-05T03:35:58.911Z,91.20
2022-12-05T03:38:26.709Z,90.60
2022-12-05T03:40:56.513Z,90.50
2022-12-05T03:43:29.227Z,89.90
2022-12-05T03:45:59.161Z,89.80
2022-12-05T03:48:35.798Z,88.30
2022-12-05T03:51:03.557Z,87.80
2022-12-05T03:53:35.913Z,88.10
2022-12-05T03:56:06.157Z,88.70
2022-12-05T03:58:38.618Z,87.30
2022-12-05T04:01:06.956Z,87.40
2022-12-05T04:03:40.738Z,88.10
2022-12-05T04:06:13.498Z,88.50
2022-12-05T04:08:52.712Z,88.30
2022-12-05T04:11:22.162Z,88.60
2022-12-05T04:14:08.945Z,88.70
2022-12-05T04:16:59.409Z,89.10
2022-12-05T04:19:55.628Z,90.00
2022-12-05T04:22:23.402Z,90.50
2022-12-05T04:25:09.345Z,90.50
2022-12-05T04:27:41.789Z,90.50
2022-12-05T04:30:10.400Z,90.40
2022-12-05T04:32:43.352Z,88.40
2022-12-05T04:35:13.864Z,88.10
2022-12-05T04:37:42.532Z,87.20
2022-12-05T04:40:14.857Z,86.80
2022-12-05T04:42:42.736Z,86.50
2022-12-05T04:45:11.541Z,87.20
2022-12-05T04:47:41.999Z,87.30
2022-12-05T04:50:09.443Z,86.40
2022-12-05T04:52:36.941Z,85.60
2022-12-05T04:55:03.490Z,85.30
2022-12-05T04:57:52.768Z,84.20
2022-12-05T05:00:19.421Z,83.60
2022-12-05T05:02:57.276Z,84.90
2022-12-05T05:05:23.894Z,83.80
2022-12-05T05:07:53.547Z,84.20
2022-12-05T05:10:22.663Z,83.70
2022-12-05T05:12:49.230Z,83.20
2022-12-05T05:15:15.766Z,83.00
2022-12-05T05:17:42.359Z,82.90
2022-12-05T05:20:24.323Z,83.20
2022-12-05T05:22:51.823Z,82.90
2022-12-05T05:25:19.078Z,81.70
2022-12-05T05:27:52.279Z,81.30
2022-12-05T05:30:19.786Z,81.40
2022-12-05T05:32:46.881Z,83.00
2022-12-05T05:35:13.672Z,81.80
2022-12-05T05:37:40.307Z,81.70
2022-12-05T05:40:10.924Z,81.00
2022-12-05T05:42:41.892Z,82.00
2022-12-05T05:45:08.779Z,81.10
2022-12-05T05:47:35.321Z,79.90
2022-12-05T05:50:01.971Z,79.50
2022-12-05T05:52:28.478Z,78.80
2022-12-05T05:54:55.002Z,78.60
2022-12-05T05:57:21.481Z,78.20
2022-12-05T05:59:47.986Z,78.00
2022-12-05T06:02:14.508Z,76.70
2022-12-05T06:04:41.013Z,76.80
2022-12-05T06:07:07.572Z,76.60
2022-12-05T06:09:34.184Z,78.00
2022-12-05T06:12:00.784Z,79.00
2022-12-05T06:14:27.356Z,80.10
2022-12-05T06:16:54.045Z,80.10
2022-12-05T06:19:20.751Z,80.90
2022-12-05T06:21:48.812Z,79.50
2022-12-05T06:24:15.372Z,79.40
2022-12-05T06:26:41.947Z,79.60
2022-12-05T06:29:08.479Z,78.20
2022-12-05T06:31:35.116Z,78.50
2022-12-05T06:34:02.893Z,77.90
2022-12-05T06:36:30.245Z,77.30
2022-12-05T06:38:57.534Z,76.70
2022-12-05T06:41:24.722Z,77.10
2022-12-05T06:44:01.880Z,76.90
2022-12-05T06:46:29.599Z,74.30
2022-12-05T06:48:57.189Z,74.60
2022-12-05T06:51:24.125Z,75.40
2022-12-05T06:53:50.664Z,74.30
2022-12-05T06:56:18.171Z,74.30
2022-12-05T06:58:45.262Z,74.30
2022-12-05T07:01:31.601Z,74.30
2022-12-05T07:03:58.991Z,74.20
2022-12-05T07:06:26.206Z,74.20
2022-12-05T07:08:52.805Z,74.20
2022-12-05T07:11:19.385Z,74.10
2022-12-05T07:13:45.903Z,74.20
2022-12-05T07:16:12.513Z,74.20
2022-12-05T07:18:39.175Z,73.50
2022-12-05T07:21:12.080Z,73.10
2022-12-05T07:23:39.893Z,74.10
2022-12-05T07:26:07.493Z,72.40
2022-12-05T07:28:34.404Z,71.90
2022-12-05T07:31:05.133Z,71.70
2022-12-05T07:33:31.730Z,69.70
2022-12-05T07:36:09.186Z,70.40
2022-12-05T07:38:35.714Z,69.90
2022-12-05T07:41:11.562Z,71.10
2022-12-05T07:43:39.842Z,70.30
2022-12-05T07:46:07.278Z,69.90
2022-12-05T07:48:33.916Z,70.20
2022-12-05T07:51:01.570Z,70.50
2022-12-05T07:53:28.653Z,70.70
2022-12-05T07:55:55.316Z,71.70
2022-12-05T07:58:21.839Z,72.10
2022-12-05T08:00:48.375Z,72.10
2022-12-05T08:03:14.888Z,72.80
2022-12-05T08:05:41.472Z,72.60
2022-12-05T08:08:08.053Z,72.50
2022-12-05T08:10:35.402Z,72.30
2022-12-05T08:13:01.972Z,71.80
2022-12-05T08:15:28.616Z,71.50
2022-12-05T08:17:55.185Z,70.40
2022-12-05T08:20:21.711Z,70.90
2022-12-05T08:22:51.286Z,69.70
2022-12-05T08:25:17.858Z,70.20
2022-12-05T08:27:44.366Z,70.20
2022-12-05T08:30:10.954Z,67.80
2022-12-05T08:32:37.492Z,66.20
2022-12-05T08:35:04.196Z,66.10
2022-12-05T08:37:30.737Z,66.20
2022-12-05T08:39:57.762Z,68.20
2022-12-05T08:42:24.492Z,68.20
2022-12-05T08:44:51.077Z,66.60
2022-12-05T08:47:17.783Z,66.70
2022-12-05T08:49:44.298Z,66.30
2022-12-05T08:52:10.825Z,66.30
2022-12-05T08:54:37.431Z,66.40
2022-12-05T08:57:03.952Z,64.80
2022-12-05T08:59:30.481Z,64.10
2022-12-05T09:01:57.124Z,62.00
2022-12-05T09:04:23.717Z,63.00
2022-12-05T09:06:51.629Z,64.50
2022-12-05T09:09:18.163Z,63.90
2022-12-05T09:11:50.692Z,63.80
2022-12-05T09:14:17.524Z,64.60
2022-12-05T09:16:45.957Z,62.70
2022-12-05T09:19:17.520Z,63.80
2022-12-05T09:21:44.299Z,66.30
2022-12-05T09:24:12.175Z,66.30
2022-12-05T09:26:38.879Z,66.30
2022-12-05T09:29:05.463Z,66.30
2022-12-05T09:31:32.093Z,66.40
2022-12-05T09:33:58.744Z,64.90
2022-12-05T09:36:29.808Z,64.20
2022-12-05T09:38:59.518Z,63.90
2022-12-05T09:41:54.300Z,65.30
2022-12-05T09:44:40.127Z,66.50
2022-12-05T09:47:14.416Z,66.60
2022-12-05T09:49:51.291Z,66.70
2022-12-05T09:52:28.561Z,65.30
2022-12-05T09:54:55.751Z,62.80
2022-12-05T09:57:33.648Z,62.70
2022-12-05T10:00:01.494Z,63.70
2022-12-05T10:02:32.035Z,64.70
2022-12-05T10:05:04.418Z,65.00
2022-12-05T10:07:37.718Z,65.60
2022-12-05T10:10:07.279Z,63.70
2022-12-05T10:12:52.633Z,65.70
2022-12-05T10:15:34.473Z,66.50
2022-12-05T10:18:09.367Z,66.60
2022-12-05T10:20:44.731Z,64.10
2022-12-05T10:23:57.396Z,64.50
2022-12-05T10:26:34.063Z,62.90
2022-12-05T10:29:17.986Z,62.40
2022-12-05T10:31:46.640Z,63.20
2022-12-05T10:34:22.370Z,64.80
2022-12-05T10:36:54.574Z,64.00
2022-12-05T10:39:21.163Z,63.00
2022-12-05T10:41:47.669Z,62.50
2022-12-05T10:44:14.224Z,62.30
2022-12-05T10:46:40.814Z,62.80
2022-12-05T10:49:13.448Z,61.70
2022-12-05T10:51:40.426Z,62.30
2022-12-05T10:54:26.316Z,63.50
2022-12-05T10:56:53.937Z,63.90
2022-12-05T10:59:43.547Z,63.80
2022-12-05T11:02:32.115Z,67.00
2022-12-05T11:04:59.681Z,69.10
2022-12-05T11:07:29.960Z,70.70
2022-12-05T11:09:57.096Z,72.30
2022-12-05T11:12:26.893Z,72.20
2022-12-05T11:14:58.027Z,73.70
2022-12-05T11:17:35.578Z,74.70
2022-12-05T11:20:03.437Z,75.30
2022-12-05T11:22:30.644Z,75.40
2022-12-05T11:24:57.287Z,75.40
2022-12-05T11:27:28.842Z,75.50
2022-12-05T11:29:55.862Z,75.50
2022-12-05T11:32:24.086Z,78.50
2022-12-05T11:34:53.692Z,79.60
2022-12-05T11:37:22.337Z,77.00
2022-12-05T11:39:48.848Z,76.50
2022-12-05T11:42:24.360Z,75.50
2022-12-05T11:45:06.211Z,79.60
2022-12-05T11:47:51.740Z,80.90
2022-12-05T11:50:36.890Z,80.70
2022-12-05T11:53:03.373Z,76.40
2022-12-05T11:55:33.382Z,78.10
2022-12-05T11:58:18.737Z,78.80
2022-12-05T12:00:45.294Z,79.90
2022-12-05T12:03:22.867Z,80.70
2022-12-05T12:05:52.156Z,79.70
2022-12-05T12:08:26.228Z,79.70
2022-12-05T12:11:09.806Z,79.70
2022-12-05T12:13:57.354Z,78.40
2022-12-05T12:16:33.066Z,77.20
2022-12-05T12:18:59.584Z,76.40
2022-12-05T12:21:38.237Z,74.60
2022-12-05T12:24:09.716Z,75.60
2022-12-05T12:26:36.202Z,75.70
2022-12-05T12:29:14.918Z,74.90
2022-12-05T12:31:53.449Z,77.00
2022-12-05T12:34:38.513Z,79.80
2022-12-05T12:37:14.100Z,78.80
2022-12-05T12:39:49.377Z,78.10
2022-12-05T12:42:21.724Z,78.30
2022-12-05T12:45:05.235Z,77.70
2022-12-05T12:47:43.949Z,78.40
2022-12-05T12:50:28.352Z,78.10
2022-12-05T12:53:00.959Z,79.00
2022-12-05T12:55:35.565Z,81.10
2022-12-05T12:58:09.814Z,82.90
2022-12-05T13:01:00.846Z,81.00
2022-12-05T13:03:30.644Z,80.70
2022-12-05T13:06:03.767Z,80.00
2022-12-05T13:08:40.952Z,79.60
2022-12-05T13:11:09.648Z,80.30
2022-12-05T13:13:38.340Z,82.40
2022-12-05T13:16:07.667Z,83.70
2022-12-05T13:18:34.635Z,83.60
2022-12-05T13:21:03.190Z,83.60
2022-12-05T13:23:32.123Z,83.60
2022-12-05T13:26:00.073Z,83.60
2022-12-05T13:28:28.347Z,83.70
2022-12-05T13:30:57.928Z,83.70
2022-12-05T13:33:25.804Z,83.60
2022-12-05T13:36:17.402Z,84.20
2022-12-05T13:39:02.981Z,84.30
2022-12-05T13:42:01.482Z,87.00
2022-12-05T13:44:51.062Z,89.00
2022-12-05T13:47:37.905Z,88.70
2022-12-05T13:50:09.999Z,89.20
2022-12-05T13:52:56.521Z,90.00
2022-12-05T13:55:35.437Z,90.30
2022-12-05T13:58:22.982Z,90.10
2022-12-05T14:00:52.503Z,90.70
2022-12-05T14:03:34.548Z,90.60
2022-12-05T14:06:01.158Z,90.60
2022-12-05T14:08:30.743Z,90.60
2022-12-05T14:10:57.252Z,90.70
2022-12-05T14:13:23.915Z,90.60
2022-12-05T14:15:51.281Z,90.60
2022-12-05T14:18:36.469Z,90.60
2022-12-05T14:21:03.135Z,90.60
2022-12-05T14:23:39.041Z,90.60
2022-12-05T14:26:32.218Z,90.60
2022-12-05T14:29:17.538Z,90.60
2022-12-05T14:32:04.407Z,90.90
2022-12-05T14:34:33.149Z,91.10
2022-12-05T14:37:14.896Z,91.30
2022-12-05T14:39:52.100Z,91.20
2022-12-05T14:42:26.891Z,91.20
2022-12-05T14:44:58.242Z,91.50
2022-12-05T14:47:28.967Z,91.70
2022-12-05T14:49:55.526Z,91.70
2022-12-05T14:52:23.604Z,91.50
2022-12-05T14:54:54.613Z,91.50
2022-12-05T14:57:21.447Z,91.60
2022-12-05T14:59:53.835Z,91.60
2022-12-05T15:02:23.958Z,91.30
2022-12-05T15:05:01.650Z,91.20
2022-12-05T15:07:33.632Z,91.30
2022-12-05T15:10:08.182Z,91.60
2022-12-05T15:12:50.093Z,91.40
2022-12-05T15:15:36.326Z,91.70
2022-12-05T15:18:20.361Z,91.80
2022-12-05T15:20:58.044Z,92.20
2022-12-05T15:23:40.928Z,92.30
2022-12-05T15:26:44.938Z,92.00
2022-12-05T15:29:14.780Z,92.10
2022-12-05T15:31:44.481Z,92.00
2022-12-05T15:34:17.218Z,92.30
2022-12-05T15:36:46.365Z,92.10
2022-12-05T15:39:23.960Z,91.90
2022-12-05T15:41:51.544Z,92.00
2022-12-05T15:44:25.276Z,92.10
2022-12-05T15:46:54.370Z,92.10
2022-12-05T15:49:23.294Z,91.90
2022-12-05T15:51:52.108Z,92.30
2022-12-05T15:54:22.623Z,92.10
2022-12-05T15:57:05.068Z,92.30
2022-12-05T15:59:40.275Z,92.20
2022-12-05T16:02:13.323Z,92.20
2022-12-05T16:04:46.499Z,92.50
2022-12-05T16:07:13.559Z,92.30
2022-12-05T16:09:42.213Z,91.80
2022-12-05T16:12:33.049Z,91.80
2022-12-05T16:15:02.155Z,91.90
2022-12-05T16:17:29.622Z,92.00
2022-12-05T16:20:10.168Z,91.80
2022-12-05T16:22:38.008Z,91.50
2022-12-05T16:25:13.636Z,91.40
2022-12-05T16:27:40.481Z,91.10
2022-12-05T16:30:13.127Z,91.00
2022-12-05T16:32:40.400Z,90.50
2022-12-05T16:35:25.453Z,90.80
2022-12-05T16:38:02.203Z,90.40
2022-12-05T16:40:28.730Z,90.40
2022-12-05T16:43:06.269Z,90.50
2022-12-05T16:45:40.239Z,97.60
2022-12-05T16:48:14.269Z,91.90
2022-12-05T16:50:41.009Z,89.30
2022-12-05T16:53:07.513Z,87.30
2022-12-05T16:55:37.619Z,85.30
2022-12-05T16:58:04.895Z,84.00
2022-12-05T17:00:31.775Z,83.20
2022-12-05T17:03:12.132Z,83.10
2022-12-05T17:05:45.012Z,82.20
2022-12-05T17:08:11.615Z,82.30
2022-12-05T17:10:39.433Z,82.10
2022-12-05T17:13:06.369Z,81.00
2022-12-05T17:15:33.167Z,81.00
2022-12-05T17:18:00.539Z,81.70
2022-12-05T17:20:27.143Z,82.80
2022-12-05T17:22:53.685Z,83.10
2022-12-05T17:25:27.153Z,83.10
2022-12-05T17:27:53.672Z,84.00
2022-12-05T17:30:20.358Z,84.70
2022-12-05T17:32:46.871Z,86.00
2022-12-05T17:35:17.603Z,87.00
2022-12-05T17:37:44.327Z,87.00
2022-12-05T17:40:11.427Z,88.00
2022-12-05T17:42:37.906Z,88.90
2022-12-05T17:45:06.265Z,87.80
2022-12-05T17:47:32.761Z,87.80
2022-12-05T17:49:59.610Z,88.20
2022-12-05T17:52:27.295Z,88.20
2022-12-05T17:54:53.823Z,87.80
2022-12-05T17:57:20.368Z,88.00
2022-12-05T17:59:46.922Z,87.90
2022-12-05T18:02:15.453Z,88.60
2022-12-05T18:04:42.056Z,89.40
2022-12-05T18:07:08.601Z,89.10
2022-12-05T18:09:35.169Z,88.00
2022-12-05T18:12:01.754Z,88.00
2022-12-05T18:14:28.352Z,88.70
2022-12-05T18:16:55.458Z,88.20
2022-12-05T18:19:22.131Z,88.30
2022-12-05T18:21:48.731Z,88.90
2022-12-05T18:24:15.238Z,88.70
2022-12-05T18:26:41.810Z,88.90
2022-12-05T18:29:08.322Z,90.10
2022-12-05T18:31:35.130Z,90.20
2022-12-05T18:34:01.710Z,90.30
2022-12-05T18:36:28.318Z,90.30
2022-12-05T18:38:56.106Z,90.30
2022-12-05T18:41:23.715Z,90.60
2022-12-05T18:43:50.665Z,90.90
2022-12-05T18:46:17.298Z,90.90
2022-12-05T18:48:47.399Z,97.30
2022-12-05T18:51:19.648Z,99.90
2022-12-05T18:53:51.805Z,99.90
2022-12-05T18:56:22.649Z,99.90
2022-12-05T18:58:57.547Z,78.40
2022-12-05T19:01:24.613Z,58.40
2022-12-05T19:03:51.482Z,40.40
2022-12-05T19:06:19.733Z,26.20
2022-12-05T19:08:46.588Z,26.60
2022-12-05T19:11:14.478Z,25.10
2022-12-05T19:13:41.403Z,20.30
2022-12-05T19:16:09.601Z,18.50
2022-12-05T19:18:36.532Z,14.40
2022-12-05T19:21:03.286Z,12.60
2022-12-05T19:23:31.857Z,10.00
2022-12-05T19:26:02.363Z,11.70
2022-12-05T19:28:29.102Z,10.80
2022-12-05T19:31:06.183Z,9.50
2022-12-05T19:33:37.509Z,9.40
2022-12-05T19:36:05.529Z,8.80
2022-12-05T19:38:34.856Z,8.10
2022-12-05T19:41:02.236Z,7.70
2022-12-05T19:43:29.781Z,8.40
2022-12-05T19:45:57.159Z,7.40
2022-12-05T19:48:24.442Z,5.50
2022-12-05T19:50:54.712Z,6.00
2022-12-05T19:53:21.379Z,2.70
2022-12-05T19:55:48.055Z,1.50
2022-12-05T19:58:14.598Z,10.10
2022-12-05T20:00:41.263Z,21.70
2022-12-05T20:03:12.129Z,31.50
2022-12-05T20:05:39.019Z,41.90
2022-12-05T20:08:05.688Z,50.60
2022-12-05T20:10:34.807Z,55.60
2022-12-05T20:13:05.446Z,60.20
2022-12-05T20:15:32.620Z,63.40
2022-12-05T20:17:59.295Z,66.90
2022-12-05T20:20:25.851Z,68.20
2022-12-05T20:22:53.231Z,71.70
2022-12-05T20:25:19.748Z,75.30
2022-12-05T20:27:46.620Z,75.20
2022-12-05T20:30:13.203Z,75.80
2022-12-05T20:32:39.794Z,75.30
2022-12-05T20:35:06.539Z,76.50
2022-12-05T20:37:35.591Z,77.70
2022-12-05T20:40:02.351Z,79.20
2022-12-05T20:42:29.043Z,78.40
2022-12-05T20:44:55.638Z,79.10
2022-12-05T20:47:22.241Z,80.70
2022-12-05T20:49:48.808Z,83.10
2022-12-05T20:52:15.448Z,83.10
2022-12-05T20:54:42.018Z,83.00
2022-12-05T20:57:08.629Z,83.40
2022-12-05T20:59:35.140Z,84.10
2022-12-05T21:02:01.770Z,85.30
2022-12-05T21:04:28.554Z,86.50
2022-12-05T21:06:56.155Z,86.80
2022-12-05T21:09:30.031Z,86.00
2022-12-05T21:11:56.577Z,86.30
2022-12-05T21:14:23.789Z,85.10
2022-12-05T21:16:52.579Z,85.10
2022-12-05T21:19:19.755Z,83.60
2022-12-05T21:21:46.342Z,84.40
2022-12-05T21:24:12.977Z,84.50
2022-12-05T21:26:39.840Z,85.00
2022-12-05T21:29:07.255Z,84.60
2022-12-05T21:31:43.694Z,86.60
2022-12-05T21:34:20.167Z,89.70
2022-12-05T21:36:47.316Z,90.10
2022-12-05T21:39:14.755Z,90.10
2022-12-05T21:41:41.391Z,90.20
2022-12-05T21:44:08.057Z,90.10
2022-12-05T21:46:34.674Z,90.10
2022-12-05T21:49:01.491Z,90.10
2022-12-05T21:51:28.006Z,90.10
2022-12-05T21:53:54.509Z,90.10
2022-12-05T21:56:22.918Z,89.00
2022-12-05T21:58:49.722Z,87.50
2022-12-05T22:01:17.462Z,87.10
2022-12-05T22:03:44.345Z,87.30
2022-12-05T22:06:11.924Z,88.00
2022-12-05T22:08:38.558Z,86.10
2022-12-05T22:11:12.862Z,84.20
2022-12-05T22:13:39.733Z,82.00
2022-12-05T22:16:07.121Z,82.00
2022-12-05T22:18:33.920Z,81.90
2022-12-05T22:21:01.647Z,81.90
2022-12-05T22:23:28.531Z,81.10
2022-12-05T22:26:02.697Z,80.10
2022-12-05T22:28:29.702Z,79.40
2022-12-05T22:30:57.209Z,79.10
2022-12-05T22:33:24.506Z,78.50
2022-12-05T22:35:51.995Z,78.50
2022-12-05T22:38:18.682Z,78.10
2022-12-05T22:40:45.555Z,77.50
2022-12-05T22:43:12.192Z,78.20
2022-12-05T22:45:38.691Z,77.90
2022-12-05T22:48:05.497Z,78.10
2022-12-05T22:50:32.085Z,78.20
2022-12-05T22:52:58.611Z,78.20
2022-12-05T22:55:25.232Z,78.60
2022-12-05T22:57:51.770Z,81.20
2022-12-05T23:00:18.614Z,83.80
2022-12-05T23:02:45.229Z,87.10
2022-12-05T23:05:11.827Z,89.10
2022-12-05T23:07:38.406Z,89.10
2022-12-05T23:10:05.346Z,88.10
2022-12-05T23:12:31.936Z,89.10
2022-12-05T23:14:58.489Z,89.10
2022-12-05T23:17:25.077Z,89.00
2022-12-05T23:19:51.643Z,89.00
2022-12-05T23:22:18.181Z,89.90
2022-12-05T23:24:44.719Z,90.30
2022-12-05T23:27:11.583Z,90.30
2022-12-05T23:29:38.130Z,89.00
2022-12-05T23:32:04.895Z,89.00
2022-12-05T23:34:31.573Z,89.00
2022-12-05T23:36:58.084Z,88.90
2022-12-05T23:39:24.650Z,88.90
2022-12-05T23:41:51.762Z,88.90
2022-12-05T23:44:18.489Z,87.70
2022-12-05T23:46:45.149Z,85.90
2022-12-05T23:49:11.856Z,85.00
2022-12-05T23:51:40.189Z,84.90
2022-12-05T23:54:09.159Z,85.00
2022-12-05T23:56:35.976Z,85.50
2022-12-05T23:59:04.412Z,87.00
